sensor_id;sensor_type;location;lat;lon;timestamp;P1;durP1;ratioP1;P2;durP2;ratioP2
75682;SDS011;64295;44.772;39.872;2023-12-29T00:00:55;0.00;;;0.00;;
75682;SDS011;64295;44.772;39.872;2023-12-29T00:03:21;0.52;;;0.43;;
75682;SDS011;64295;44.772;39.872;2023-12-29T00:05:47;1.17;;;0.73;;
75682;SDS011;64295;44.772;39.872;2023-12-29T00:08:13;1.75;;;1.65;;
75682;SDS011;64295;44.772;39.872;2023-12-29T00:10:39;2.25;;;1.08;;
75682;SDS011;64295;44.772;39.872;2023-12-29T00:13:05;1.55;;;1.45;;
75682;SDS011;64295;44.772;39.872;2023-12-29T00:15:31;7.70;;;1.88;;
75682;SDS011;64295;44.772;39.872;2023-12-29T00:17:57;8.48;;;1.35;;
75682;SDS011;64295;44.772;39.872;2023-12-29T00:20:23;0.77;;;0.77;;
75682;SDS011;64295;44.772;39.872;2023-12-29T00:22:49;2.15;;;1.95;;
75682;SDS011;64295;44.772;39.872;2023-12-29T00:25:14;0.80;;;0.80;;
75682;SDS011;64295;44.772;39.872;2023-12-29T00:27:41;0.52;;;0.52;;
75682;SDS011;64295;44.772;39.872;2023-12-29T00:30:07;0.60;;;0.60;;
75682;SDS011;64295;44.772;39.872;2023-12-29T00:32:34;3.13;;;2.92;;
75682;SDS011;64295;44.772;39.872;2023-12-29T00:35:00;0.10;;;0.10;;
75682;SDS011;64295;44.772;39.872;2023-12-29T00:37:26;0.00;;;0.00;;
75682;SDS011;64295;44.772;39.872;2023-12-29T00:39:53;0.80;;;0.73;;
75682;SDS011;64295;44.772;39.872;2023-12-29T00:42:19;0.32;;;0.32;;
75682;SDS011;64295;44.772;39.872;2023-12-29T00:44:45;0.28;;;0.28;;
75682;SDS011;64295;44.772;39.872;2023-12-29T00:47:11;0.30;;;0.30;;
75682;SDS011;64295;44.772;39.872;2023-12-29T00:49:38;0.00;;;0.00;;
75682;SDS011;64295;44.772;39.872;2023-12-29T00:52:06;0.00;;;0.00;;
75682;SDS011;64295;44.772;39.872;2023-12-29T00:54:33;0.73;;;0.73;;
75682;SDS011;64295;44.772;39.872;2023-12-29T00:56:59;0.00;;;0.00;;
75682;SDS011;64295;44.772;39.872;2023-12-29T00:59:26;1.13;;;0.75;;
75682;SDS011;64295;44.772;39.872;2023-12-29T01:01:52;0.00;;;0.00;;
75682;SDS011;64295;44.772;39.872;2023-12-29T01:04:17;0.05;;;0.05;;
75682;SDS011;64295;44.772;39.872;2023-12-29T01:06:43;0.00;;;0.00;;
75682;SDS011;64295;44.772;39.872;2023-12-29T01:09:09;0.50;;;0.50;;
75682;SDS011;64295;44.772;39.872;2023-12-29T01:11:36;0.28;;;0.28;;
75682;SDS011;64295;44.772;39.872;2023-12-29T01:14:02;0.00;;;0.00;;
75682;SDS011;64295;44.772;39.872;2023-12-29T01:16:28;0.00;;;0.00;;
75682;SDS011;64295;44.772;39.872;2023-12-29T01:18:54;0.55;;;0.32;;
75682;SDS011;64295;44.772;39.872;2023-12-29T01:21:20;0.30;;;0.25;;
75682;SDS011;64295;44.772;39.872;2023-12-29T01:23:46;0.10;;;0.10;;
75682;SDS011;64295;44.772;39.872;2023-12-29T01:26:12;0.03;;;0.03;;
75682;SDS011;64295;44.772;39.872;2023-12-29T01:28:38;0.20;;;0.20;;
75682;SDS011;64295;44.772;39.872;2023-12-29T01:31:04;0.10;;;0.10;;
75682;SDS011;64295;44.772;39.872;2023-12-29T01:33:30;0.13;;;0.13;;
75682;SDS011;64295;44.772;39.872;2023-12-29T01:35:56;0.13;;;0.13;;
75682;SDS011;64295;44.772;39.872;2023-12-29T01:38:22;0.00;;;0.00;;
75682;SDS011;64295;44.772;39.872;2023-12-29T01:40:48;1.48;;;1.38;;
75682;SDS011;64295;44.772;39.872;2023-12-29T01:43:14;0.03;;;0.03;;
75682;SDS011;64295;44.772;39.872;2023-12-29T01:45:40;0.00;;;0.00;;
75682;SDS011;64295;44.772;39.872;2023-12-29T01:48:06;0.80;;;0.22;;
75682;SDS011;64295;44.772;39.872;2023-12-29T01:50:34;0.00;;;0.00;;
75682;SDS011;64295;44.772;39.872;2023-12-29T01:53:01;0.20;;;0.20;;
75682;SDS011;64295;44.772;39.872;2023-12-29T01:55:29;0.40;;;0.40;;
75682;SDS011;64295;44.772;39.872;2023-12-29T01:57:55;0.95;;;0.93;;
75682;SDS011;64295;44.772;39.872;2023-12-29T02:00:21;0.25;;;0.20;;
75682;SDS011;64295;44.772;39.872;2023-12-29T02:02:47;3.38;;;1.75;;
75682;SDS011;64295;44.772;39.872;2023-12-29T02:05:14;1.45;;;1.27;;
75682;SDS011;64295;44.772;39.872;2023-12-29T02:07:42;0.25;;;0.25;;
75682;SDS011;64295;44.772;39.872;2023-12-29T02:10:09;0.20;;;0.20;;
75682;SDS011;64295;44.772;39.872;2023-12-29T02:12:39;0.60;;;0.60;;
75682;SDS011;64295;44.772;39.872;2023-12-29T02:15:06;4.63;;;0.55;;
75682;SDS011;64295;44.772;39.872;2023-12-29T02:17:38;2.10;;;0.90;;
75682;SDS011;64295;44.772;39.872;2023-12-29T02:20:07;0.10;;;0.10;;
75682;SDS011;64295;44.772;39.872;2023-12-29T02:22:34;0.45;;;0.45;;
75682;SDS011;64295;44.772;39.872;2023-12-29T02:25:00;0.47;;;0.47;;
75682;SDS011;64295;44.772;39.872;2023-12-29T02:33:13;0.30;;;0.30;;
75682;SDS011;64295;44.772;39.872;2023-12-29T02:35:45;0.43;;;0.43;;
75682;SDS011;64295;44.772;39.872;2023-12-29T02:38:14;0.85;;;0.85;;
75682;SDS011;64295;44.772;39.872;2023-12-29T02:40:40;1.15;;;1.05;;
75682;SDS011;64295;44.772;39.872;2023-12-29T02:43:10;0.68;;;0.68;;
75682;SDS011;64295;44.772;39.872;2023-12-29T02:45:36;1.13;;;0.85;;
75682;SDS011;64295;44.772;39.872;2023-12-29T02:48:02;2.05;;;1.60;;
75682;SDS011;64295;44.772;39.872;2023-12-29T02:50:28;0.00;;;0.00;;
75682;SDS011;64295;44.772;39.872;2023-12-29T02:52:54;0.65;;;0.65;;
75682;SDS011;64295;44.772;39.872;2023-12-29T02:55:20;1.85;;;1.75;;
75682;SDS011;64295;44.772;39.872;2023-12-29T02:57:47;1.05;;;1.05;;
75682;SDS011;64295;44.772;39.872;2023-12-29T03:00:13;0.70;;;0.70;;
75682;SDS011;64295;44.772;39.872;2023-12-29T03:02:39;0.20;;;0.20;;
75682;SDS011;64295;44.772;39.872;2023-12-29T03:05:05;0.65;;;0.65;;
75682;SDS011;64295;44.772;39.872;2023-12-29T03:07:32;2.42;;;2.33;;
75682;SDS011;64295;44.772;39.872;2023-12-29T03:09:57;1.25;;;1.25;;
75682;SDS011;64295;44.772;39.872;2023-12-29T03:12:23;2.60;;;2.40;;
75682;SDS011;64295;44.772;39.872;2023-12-29T03:14:49;1.85;;;1.75;;
75682;SDS011;64295;44.772;39.872;2023-12-29T03:17:15;0.60;;;0.60;;
75682;SDS011;64295;44.772;39.872;2023-12-29T03:19:41;0.75;;;0.75;;
75682;SDS011;64295;44.772;39.872;2023-12-29T03:22:07;1.33;;;1.30;;
75682;SDS011;64295;44.772;39.872;2023-12-29T03:24:34;0.55;;;0.55;;
75682;SDS011;64295;44.772;39.872;2023-12-29T03:27:00;1.17;;;1.15;;
75682;SDS011;64295;44.772;39.872;2023-12-29T03:29:26;3.30;;;2.97;;
75682;SDS011;64295;44.772;39.872;2023-12-29T03:31:52;2.35;;;2.25;;
75682;SDS011;64295;44.772;39.872;2023-12-29T03:34:18;1.52;;;1.42;;
75682;SDS011;64295;44.772;39.872;2023-12-29T03:36:45;0.82;;;0.82;;
75682;SDS011;64295;44.772;39.872;2023-12-29T03:39:11;1.15;;;1.15;;
75682;SDS011;64295;44.772;39.872;2023-12-29T03:41:37;0.38;;;0.38;;
75682;SDS011;64295;44.772;39.872;2023-12-29T03:44:03;0.38;;;0.35;;
75682;SDS011;64295;44.772;39.872;2023-12-29T03:46:31;0.50;;;0.20;;
75682;SDS011;64295;44.772;39.872;2023-12-29T03:48:58;0.10;;;0.10;;
75682;SDS011;64295;44.772;39.872;2023-12-29T03:51:24;0.25;;;0.25;;
75682;SDS011;64295;44.772;39.872;2023-12-29T03:53:50;0.95;;;0.95;;
75682;SDS011;64295;44.772;39.872;2023-12-29T03:56:16;1.00;;;0.98;;
75682;SDS011;64295;44.772;39.872;2023-12-29T03:58:46;2.58;;;2.38;;
75682;SDS011;64295;44.772;39.872;2023-12-29T04:03:40;1.67;;;1.58;;
75682;SDS011;64295;44.772;39.872;2023-12-29T04:06:06;1.75;;;1.65;;
75682;SDS011;64295;44.772;39.872;2023-12-29T04:08:33;1.08;;;1.08;;
75682;SDS011;64295;44.772;39.872;2023-12-29T04:10:59;0.22;;;0.22;;
75682;SDS011;64295;44.772;39.872;2023-12-29T04:13:26;1.30;;;1.30;;
75682;SDS011;64295;44.772;39.872;2023-12-29T04:15:52;1.38;;;1.38;;
75682;SDS011;64295;44.772;39.872;2023-12-29T04:18:22;0.85;;;0.68;;
75682;SDS011;64295;44.772;39.872;2023-12-29T04:20:48;0.60;;;0.60;;
75682;SDS011;64295;44.772;39.872;2023-12-29T04:23:14;1.55;;;0.45;;
75682;SDS011;64295;44.772;39.872;2023-12-29T04:25:40;2.00;;;1.38;;
75682;SDS011;64295;44.772;39.872;2023-12-29T04:28:07;0.10;;;0.10;;
75682;SDS011;64295;44.772;39.872;2023-12-29T04:30:33;0.13;;;0.13;;
75682;SDS011;64295;44.772;39.872;2023-12-29T04:32:59;0.00;;;0.00;;
75682;SDS011;64295;44.772;39.872;2023-12-29T04:35:26;0.00;;;0.00;;
75682;SDS011;64295;44.772;39.872;2023-12-29T04:37:52;0.43;;;0.43;;
75682;SDS011;64295;44.772;39.872;2023-12-29T04:40:18;1.27;;;1.08;;
75682;SDS011;64295;44.772;39.872;2023-12-29T04:42:45;0.20;;;0.20;;
75682;SDS011;64295;44.772;39.872;2023-12-29T04:45:11;0.63;;;0.47;;
75682;SDS011;64295;44.772;39.872;2023-12-29T04:47:37;0.10;;;0.10;;
75682;SDS011;64295;44.772;39.872;2023-12-29T04:50:03;0.00;;;0.00;;
75682;SDS011;64295;44.772;39.872;2023-12-29T04:52:31;0.03;;;0.03;;
75682;SDS011;64295;44.772;39.872;2023-12-29T04:54:57;0.05;;;0.05;;
75682;SDS011;64295;44.772;39.872;2023-12-29T04:57:23;0.08;;;0.08;;
75682;SDS011;64295;44.772;39.872;2023-12-29T04:59:49;0.80;;;0.73;;
75682;SDS011;64295;44.772;39.872;2023-12-29T05:02:15;0.10;;;0.10;;
75682;SDS011;64295;44.772;39.872;2023-12-29T05:04:41;0.08;;;0.08;;
75682;SDS011;64295;44.772;39.872;2023-12-29T05:07:08;0.00;;;0.00;;
75682;SDS011;64295;44.772;39.872;2023-12-29T05:09:35;0.00;;;0.00;;
75682;SDS011;64295;44.772;39.872;2023-12-29T05:12:01;0.00;;;0.00;;
75682;SDS011;64295;44.772;39.872;2023-12-29T05:14:27;0.88;;;0.75;;
75682;SDS011;64295;44.772;39.872;2023-12-29T05:16:53;0.30;;;0.30;;
75682;SDS011;64295;44.772;39.872;2023-12-29T05:19:19;0.03;;;0.03;;
75682;SDS011;64295;44.772;39.872;2023-12-29T05:21:45;0.00;;;0.00;;
75682;SDS011;64295;44.772;39.872;2023-12-29T05:24:11;6.15;;;0.85;;
75682;SDS011;64295;44.772;39.872;2023-12-29T05:26:37;0.10;;;0.10;;
75682;SDS011;64295;44.772;39.872;2023-12-29T05:29:03;0.50;;;0.50;;
75682;SDS011;64295;44.772;39.872;2023-12-29T05:31:29;0.00;;;0.00;;
75682;SDS011;64295;44.772;39.872;2023-12-29T05:33:55;2.63;;;0.55;;
75682;SDS011;64295;44.772;39.872;2023-12-29T05:36:21;0.75;;;0.75;;
75682;SDS011;64295;44.772;39.872;2023-12-29T05:38:47;0.22;;;0.22;;
75682;SDS011;64295;44.772;39.872;2023-12-29T05:41:13;0.00;;;0.00;;
75682;SDS011;64295;44.772;39.872;2023-12-29T05:43:39;1.20;;;1.20;;
75682;SDS011;64295;44.772;39.872;2023-12-29T05:46:09;0.45;;;0.45;;
75682;SDS011;64295;44.772;39.872;2023-12-29T05:48:39;1.00;;;1.00;;
75682;SDS011;64295;44.772;39.872;2023-12-29T05:51:12;0.65;;;0.65;;
75682;SDS011;64295;44.772;39.872;2023-12-29T05:53:41;0.10;;;0.10;;
75682;SDS011;64295;44.772;39.872;2023-12-29T05:56:08;0.10;;;0.10;;
75682;SDS011;64295;44.772;39.872;2023-12-29T05:58:37;2.67;;;1.10;;
75682;SDS011;64295;44.772;39.872;2023-12-29T06:01:03;0.30;;;0.30;;
75682;SDS011;64295;44.772;39.872;2023-12-29T06:03:29;1.50;;;1.50;;
75682;SDS011;64295;44.772;39.872;2023-12-29T06:05:55;2.28;;;0.95;;
75682;SDS011;64295;44.772;39.872;2023-12-29T06:08:21;1.23;;;1.20;;
75682;SDS011;64295;44.772;39.872;2023-12-29T06:10:50;0.60;;;0.60;;
75682;SDS011;64295;44.772;39.872;2023-12-29T06:13:15;1.25;;;1.17;;
75682;SDS011;64295;44.772;39.872;2023-12-29T06:15:41;0.13;;;0.13;;
75682;SDS011;64295;44.772;39.872;2023-12-29T06:18:07;1.70;;;1.63;;
75682;SDS011;64295;44.772;39.872;2023-12-29T06:20:33;1.55;;;1.27;;
75682;SDS011;64295;44.772;39.872;2023-12-29T06:22:59;0.10;;;0.10;;
75682;SDS011;64295;44.772;39.872;2023-12-29T06:25:26;0.40;;;0.40;;
75682;SDS011;64295;44.772;39.872;2023-12-29T06:27:53;0.75;;;0.75;;
75682;SDS011;64295;44.772;39.872;2023-12-29T06:30:19;10.70;;;1.38;;
75682;SDS011;64295;44.772;39.872;2023-12-29T06:32:46;3.75;;;3.35;;
75682;SDS011;64295;44.772;39.872;2023-12-29T06:35:12;2.22;;;2.15;;
75682;SDS011;64295;44.772;39.872;2023-12-29T06:37:39;1.98;;;1.88;;
75682;SDS011;64295;44.772;39.872;2023-12-29T06:40:08;1.70;;;1.65;;
75682;SDS011;64295;44.772;39.872;2023-12-29T06:42:34;2.53;;;2.42;;
75682;SDS011;64295;44.772;39.872;2023-12-29T06:45:00;1.52;;;1.52;;
75682;SDS011;64295;44.772;39.872;2023-12-29T06:47:26;3.20;;;2.92;;
75682;SDS011;64295;44.772;39.872;2023-12-29T06:49:52;1.23;;;1.23;;
75682;SDS011;64295;44.772;39.872;2023-12-29T06:52:19;2.05;;;1.60;;
75682;SDS011;64295;44.772;39.872;2023-12-29T06:54:45;1.10;;;1.10;;
75682;SDS011;64295;44.772;39.872;2023-12-29T06:57:11;7.43;;;1.10;;
75682;SDS011;64295;44.772;39.872;2023-12-29T06:59:39;2.25;;;1.58;;
75682;SDS011;64295;44.772;39.872;2023-12-29T07:02:06;0.88;;;0.88;;
75682;SDS011;64295;44.772;39.872;2023-12-29T07:04:32;3.00;;;1.60;;
75682;SDS011;64295;44.772;39.872;2023-12-29T07:06:59;2.72;;;2.50;;
75682;SDS011;64295;44.772;39.872;2023-12-29T07:09:26;6.20;;;4.07;;
75682;SDS011;64295;44.772;39.872;2023-12-29T07:11:52;2.28;;;2.17;;
75682;SDS011;64295;44.772;39.872;2023-12-29T07:14:18;3.35;;;3.13;;
75682;SDS011;64295;44.772;39.872;2023-12-29T07:16:44;1.88;;;1.77;;
75682;SDS011;64295;44.772;39.872;2023-12-29T07:19:10;8.65;;;4.40;;
75682;SDS011;64295;44.772;39.872;2023-12-29T07:21:36;0.38;;;0.35;;
75682;SDS011;64295;44.772;39.872;2023-12-29T07:24:02;0.30;;;0.30;;
75682;SDS011;64295;44.772;39.872;2023-12-29T07:26:28;0.35;;;0.35;;
75682;SDS011;64295;44.772;39.872;2023-12-29T07:28:54;6.05;;;3.67;;
75682;SDS011;64295;44.772;39.872;2023-12-29T07:31:20;2.53;;;2.33;;
75682;SDS011;64295;44.772;39.872;2023-12-29T07:33:47;1.60;;;1.50;;
75682;SDS011;64295;44.772;39.872;2023-12-29T07:36:13;1.40;;;1.38;;
75682;SDS011;64295;44.772;39.872;2023-12-29T07:38:38;1.42;;;1.33;;
75682;SDS011;64295;44.772;39.872;2023-12-29T07:41:13;0.68;;;0.68;;
75682;SDS011;64295;44.772;39.872;2023-12-29T07:43:40;1.58;;;1.58;;
75682;SDS011;64295;44.772;39.872;2023-12-29T07:46:10;3.30;;;1.95;;
75682;SDS011;64295;44.772;39.872;2023-12-29T07:48:36;1.42;;;1.42;;
75682;SDS011;64295;44.772;39.872;2023-12-29T07:51:05;0.60;;;0.60;;
75682;SDS011;64295;44.772;39.872;2023-12-29T07:53:32;1.77;;;1.67;;
75682;SDS011;64295;44.772;39.872;2023-12-29T07:55:57;3.72;;;2.92;;
75682;SDS011;64295;44.772;39.872;2023-12-29T07:58:23;3.72;;;1.80;;
75682;SDS011;64295;44.772;39.872;2023-12-29T08:00:49;4.80;;;3.30;;
75682;SDS011;64295;44.772;39.872;2023-12-29T08:03:15;4.28;;;1.15;;
75682;SDS011;64295;44.772;39.872;2023-12-29T08:05:41;5.63;;;2.05;;
75682;SDS011;64295;44.772;39.872;2023-12-29T08:08:07;1.95;;;1.63;;
75682;SDS011;64295;44.772;39.872;2023-12-29T08:10:33;4.50;;;3.03;;
75682;SDS011;64295;44.772;39.872;2023-12-29T08:12:59;1.80;;;1.70;;
75682;SDS011;64295;44.772;39.872;2023-12-29T08:15:25;1.15;;;1.15;;
75682;SDS011;64295;44.772;39.872;2023-12-29T08:17:51;2.92;;;1.65;;
75682;SDS011;64295;44.772;39.872;2023-12-29T08:20:17;0.20;;;0.20;;
75682;SDS011;64295;44.772;39.872;2023-12-29T08:22:43;2.55;;;2.45;;
75682;SDS011;64295;44.772;39.872;2023-12-29T08:25:08;0.30;;;0.30;;
75682;SDS011;64295;44.772;39.872;2023-12-29T08:27:34;0.77;;;0.77;;
75682;SDS011;64295;44.772;39.872;2023-12-29T08:30:00;11.30;;;3.35;;
75682;SDS011;64295;44.772;39.872;2023-12-29T08:32:27;0.82;;;0.63;;
75682;SDS011;64295;44.772;39.872;2023-12-29T08:34:53;1.65;;;1.55;;
75682;SDS011;64295;44.772;39.872;2023-12-29T08:37:19;0.45;;;0.45;;
75682;SDS011;64295;44.772;39.872;2023-12-29T08:39:46;4.45;;;1.70;;
75682;SDS011;64295;44.772;39.872;2023-12-29T08:42:13;8.50;;;0.98;;
75682;SDS011;64295;44.772;39.872;2023-12-29T08:44:39;2.72;;;1.90;;
75682;SDS011;64295;44.772;39.872;2023-12-29T08:47:06;1.13;;;1.10;;
75682;SDS011;64295;44.772;39.872;2023-12-29T08:49:36;1.23;;;0.57;;
75682;SDS011;64295;44.772;39.872;2023-12-29T08:52:03;1.85;;;1.52;;
75682;SDS011;64295;44.772;39.872;2023-12-29T08:54:29;3.50;;;2.53;;
75682;SDS011;64295;44.772;39.872;2023-12-29T08:56:55;0.35;;;0.35;;
75682;SDS011;64295;44.772;39.872;2023-12-29T08:59:21;0.95;;;0.95;;
75682;SDS011;64295;44.772;39.872;2023-12-29T09:01:47;0.38;;;0.38;;
75682;SDS011;64295;44.772;39.872;2023-12-29T09:04:13;2.78;;;0.60;;
75682;SDS011;64295;44.772;39.872;2023-12-29T09:06:39;0.80;;;0.80;;
75682;SDS011;64295;44.772;39.872;2023-12-29T09:09:04;4.57;;;1.60;;
75682;SDS011;64295;44.772;39.872;2023-12-29T09:11:30;2.22;;;1.52;;
75682;SDS011;64295;44.772;39.872;2023-12-29T09:13:56;1.08;;;0.43;;
75682;SDS011;64295;44.772;39.872;2023-12-29T09:16:22;2.97;;;1.48;;
75682;SDS011;64295;44.772;39.872;2023-12-29T09:18:48;0.60;;;0.60;;
75682;SDS011;64295;44.772;39.872;2023-12-29T09:21:14;1.65;;;1.35;;
75682;SDS011;64295;44.772;39.872;2023-12-29T09:23:40;0.73;;;0.73;;
75682;SDS011;64295;44.772;39.872;2023-12-29T09:26:06;0.43;;;0.38;;
75682;SDS011;64295;44.772;39.872;2023-12-29T09:28:32;0.43;;;0.43;;
75682;SDS011;64295;44.772;39.872;2023-12-29T09:30:59;0.00;;;0.00;;
75682;SDS011;64295;44.772;39.872;2023-12-29T09:33:25;0.17;;;0.17;;
75682;SDS011;64295;44.772;39.872;2023-12-29T09:35:51;0.82;;;0.82;;
75682;SDS011;64295;44.772;39.872;2023-12-29T09:38:18;0.00;;;0.00;;
75682;SDS011;64295;44.772;39.872;2023-12-29T09:40:44;0.00;;;0.00;;
75682;SDS011;64295;44.772;39.872;2023-12-29T09:43:12;0.75;;;0.75;;
75682;SDS011;64295;44.772;39.872;2023-12-29T09:45:38;0.20;;;0.20;;
75682;SDS011;64295;44.772;39.872;2023-12-29T09:48:08;0.10;;;0.10;;
75682;SDS011;64295;44.772;39.872;2023-12-29T09:50:35;0.75;;;0.75;;
75682;SDS011;64295;44.772;39.872;2023-12-29T09:53:02;0.15;;;0.15;;
75682;SDS011;64295;44.772;39.872;2023-12-29T09:55:28;0.40;;;0.20;;
75682;SDS011;64295;44.772;39.872;2023-12-29T09:57:54;0.20;;;0.10;;
75682;SDS011;64295;44.772;39.872;2023-12-29T10:00:21;0.15;;;0.15;;
75682;SDS011;64295;44.772;39.872;2023-12-29T10:02:48;0.30;;;0.30;;
75682;SDS011;64295;44.772;39.872;2023-12-29T10:05:18;0.47;;;0.47;;
75682;SDS011;64295;44.772;39.872;2023-12-29T10:07:44;0.32;;;0.32;;
75682;SDS011;64295;44.772;39.872;2023-12-29T10:10:16;0.60;;;0.60;;
75682;SDS011;64295;44.772;39.872;2023-12-29T10:12:49;1.20;;;0.50;;
75682;SDS011;64295;44.772;39.872;2023-12-29T10:21:57;0.85;;;0.65;;
75682;SDS011;64295;44.772;39.872;2023-12-29T10:24:29;0.10;;;0.10;;
75682;SDS011;64295;44.772;39.872;2023-12-29T10:26:55;0.45;;;0.30;;
75682;SDS011;64295;44.772;39.872;2023-12-29T10:29:21;0.10;;;0.10;;
75682;SDS011;64295;44.772;39.872;2023-12-29T10:31:47;2.63;;;0.52;;
75682;SDS011;64295;44.772;39.872;2023-12-29T10:34:17;0.35;;;0.35;;
75682;SDS011;64295;44.772;39.872;2023-12-29T10:36:48;0.20;;;0.20;;
75682;SDS011;64295;44.772;39.872;2023-12-29T10:39:14;0.57;;;0.45;;
75682;SDS011;64295;44.772;39.872;2023-12-29T10:41:41;0.20;;;0.20;;
75682;SDS011;64295;44.772;39.872;2023-12-29T10:44:07;0.35;;;0.20;;
75682;SDS011;64295;44.772;39.872;2023-12-29T10:46:33;1.77;;;0.98;;
75682;SDS011;64295;44.772;39.872;2023-12-29T10:49:09;0.08;;;0.08;;
75682;SDS011;64295;44.772;39.872;2023-12-29T10:51:39;0.47;;;0.47;;
75682;SDS011;64295;44.772;39.872;2023-12-29T10:54:05;0.05;;;0.05;;
75682;SDS011;64295;44.772;39.872;2023-12-29T10:56:32;0.40;;;0.40;;
75682;SDS011;64295;44.772;39.872;2023-12-29T11:01:32;0.15;;;0.15;;
75682;SDS011;64295;44.772;39.872;2023-12-29T11:04:00;0.60;;;0.30;;
75682;SDS011;64295;44.772;39.872;2023-12-29T11:06:28;0.30;;;0.30;;
75682;SDS011;64295;44.772;39.872;2023-12-29T11:08:55;0.10;;;0.10;;
75682;SDS011;64295;44.772;39.872;2023-12-29T11:11:22;0.63;;;0.63;;
75682;SDS011;64295;44.772;39.872;2023-12-29T11:13:49;0.10;;;0.10;;
75682;SDS011;64295;44.772;39.872;2023-12-29T11:16:15;0.75;;;0.45;;
75682;SDS011;64295;44.772;39.872;2023-12-29T11:18:47;0.20;;;0.17;;
75682;SDS011;64295;44.772;39.872;2023-12-29T11:21:16;0.20;;;0.20;;
75682;SDS011;64295;44.772;39.872;2023-12-29T11:23:42;1.45;;;0.70;;
75682;SDS011;64295;44.772;39.872;2023-12-29T11:26:09;22.17;;;1.88;;
75682;SDS011;64295;44.772;39.872;2023-12-29T11:28:35;1.90;;;0.35;;
75682;SDS011;64295;44.772;39.872;2023-12-29T11:31:02;0.08;;;0.08;;
75682;SDS011;64295;44.772;39.872;2023-12-29T11:33:31;0.10;;;0.10;;
75682;SDS011;64295;44.772;39.872;2023-12-29T11:36:16;0.47;;;0.15;;
75682;SDS011;64295;44.772;39.872;2023-12-29T11:38:49;0.40;;;0.40;;
75682;SDS011;64295;44.772;39.872;2023-12-29T11:41:31;0.47;;;0.20;;
75682;SDS011;64295;44.772;39.872;2023-12-29T11:44:28;0.20;;;0.20;;
75682;SDS011;64295;44.772;39.872;2023-12-29T11:46:56;0.10;;;0.10;;
75682;SDS011;64295;44.772;39.872;2023-12-29T11:49:25;0.10;;;0.10;;
75682;SDS011;64295;44.772;39.872;2023-12-29T11:51:51;0.43;;;0.40;;
75682;SDS011;64295;44.772;39.872;2023-12-29T11:54:24;0.20;;;0.20;;
75682;SDS011;64295;44.772;39.872;2023-12-29T11:56:52;0.85;;;0.40;;
75682;SDS011;64295;44.772;39.872;2023-12-29T12:01:49;0.20;;;0.20;;
75682;SDS011;64295;44.772;39.872;2023-12-29T12:04:35;0.17;;;0.17;;
75682;SDS011;64295;44.772;39.872;2023-12-29T12:07:03;0.25;;;0.25;;
75682;SDS011;64295;44.772;39.872;2023-12-29T12:09:41;0.10;;;0.10;;
75682;SDS011;64295;44.772;39.872;2023-12-29T12:12:07;0.05;;;0.05;;
75682;SDS011;64295;44.772;39.872;2023-12-29T12:17:29;0.50;;;0.22;;
75682;SDS011;64295;44.772;39.872;2023-12-29T12:22:31;0.00;;;0.00;;
75682;SDS011;64295;44.772;39.872;2023-12-29T12:24:58;0.45;;;0.22;;
75682;SDS011;64295;44.772;39.872;2023-12-29T12:27:25;0.20;;;0.20;;
75682;SDS011;64295;44.772;39.872;2023-12-29T12:29:55;0.30;;;0.30;;
75682;SDS011;64295;44.772;39.872;2023-12-29T12:32:28;0.20;;;0.20;;
75682;SDS011;64295;44.772;39.872;2023-12-29T12:34:55;0.15;;;0.15;;
75682;SDS011;64295;44.772;39.872;2023-12-29T12:37:22;0.70;;;0.70;;
75682;SDS011;64295;44.772;39.872;2023-12-29T12:39:51;0.50;;;0.50;;
75682;SDS011;64295;44.772;39.872;2023-12-29T12:42:18;0.17;;;0.10;;
75682;SDS011;64295;44.772;39.872;2023-12-29T12:44:49;1.92;;;0.32;;
75682;SDS011;64295;44.772;39.872;2023-12-29T12:50:18;0.30;;;0.30;;
75682;SDS011;64295;44.772;39.872;2023-12-29T12:52:44;1.95;;;0.95;;
75682;SDS011;64295;44.772;39.872;2023-12-29T12:55:11;5.22;;;2.28;;
75682;SDS011;64295;44.772;39.872;2023-12-29T12:57:38;3.10;;;0.90;;
75682;SDS011;64295;44.772;39.872;2023-12-29T13:00:04;0.40;;;0.40;;
75682;SDS011;64295;44.772;39.872;2023-12-29T13:02:31;0.20;;;0.20;;
75682;SDS011;64295;44.772;39.872;2023-12-29T13:04:58;0.30;;;0.30;;
75682;SDS011;64295;44.772;39.872;2023-12-29T13:07:24;0.35;;;0.28;;
75682;SDS011;64295;44.772;39.872;2023-12-29T13:09:51;0.28;;;0.20;;
75682;SDS011;64295;44.772;39.872;2023-12-29T13:12:18;0.05;;;0.05;;
75682;SDS011;64295;44.772;39.872;2023-12-29T13:14:44;0.13;;;0.13;;
75682;SDS011;64295;44.772;39.872;2023-12-29T13:17:13;6.18;;;1.05;;
75682;SDS011;64295;44.772;39.872;2023-12-29T13:19:55;0.55;;;0.52;;
75682;SDS011;64295;44.772;39.872;2023-12-29T13:22:23;0.20;;;0.20;;
75682;SDS011;64295;44.772;39.872;2023-12-29T13:24:49;0.10;;;0.10;;
75682;SDS011;64295;44.772;39.872;2023-12-29T13:27:15;0.50;;;0.30;;
75682;SDS011;64295;44.772;39.872;2023-12-29T13:29:51;0.65;;;0.65;;
75682;SDS011;64295;44.772;39.872;2023-12-29T13:35:02;1.88;;;0.70;;
75682;SDS011;64295;44.772;39.872;2023-12-29T13:40:35;1.38;;;0.68;;
75682;SDS011;64295;44.772;39.872;2023-12-29T13:45:32;0.15;;;0.15;;
75682;SDS011;64295;44.772;39.872;2023-12-29T13:48:00;4.43;;;0.68;;
75682;SDS011;64295;44.772;39.872;2023-12-29T13:50:27;0.30;;;0.30;;
75682;SDS011;64295;44.772;39.872;2023-12-29T13:52:53;0.65;;;0.65;;
75682;SDS011;64295;44.772;39.872;2023-12-29T13:55:22;12.60;;;1.25;;
75682;SDS011;64295;44.772;39.872;2023-12-29T13:57:49;1.17;;;0.98;;
75682;SDS011;64295;44.772;39.872;2023-12-29T14:08:16;19.63;;;1.42;;
75682;SDS011;64295;44.772;39.872;2023-12-29T14:11:09;5.88;;;1.50;;
75682;SDS011;64295;44.772;39.872;2023-12-29T14:13:40;5.50;;;1.63;;
75682;SDS011;64295;44.772;39.872;2023-12-29T14:16:11;5.53;;;1.08;;
75682;SDS011;64295;44.772;39.872;2023-12-29T14:21:21;0.95;;;0.95;;
75682;SDS011;64295;44.772;39.872;2023-12-29T14:26:27;3.42;;;1.23;;
75682;SDS011;64295;44.772;39.872;2023-12-29T14:29:00;6.80;;;1.75;;
75682;SDS011;64295;44.772;39.872;2023-12-29T14:31:38;4.18;;;3.28;;
75682;SDS011;64295;44.772;39.872;2023-12-29T14:34:05;2.85;;;2.60;;
75682;SDS011;64295;44.772;39.872;2023-12-29T14:36:35;4.93;;;3.30;;
75682;SDS011;64295;44.772;39.872;2023-12-29T14:39:02;7.22;;;1.92;;
75682;SDS011;64295;44.772;39.872;2023-12-29T14:41:29;2.67;;;1.15;;
75682;SDS011;64295;44.772;39.872;2023-12-29T14:43:58;4.07;;;3.75;;
75682;SDS011;64295;44.772;39.872;2023-12-29T14:46:25;4.05;;;2.35;;
75682;SDS011;64295;44.772;39.872;2023-12-29T14:48:51;3.28;;;1.42;;
75682;SDS011;64295;44.772;39.872;2023-12-29T14:51:19;4.05;;;2.40;;
75682;SDS011;64295;44.772;39.872;2023-12-29T14:53:45;19.40;;;4.68;;
75682;SDS011;64295;44.772;39.872;2023-12-29T14:56:13;31.45;;;2.58;;
75682;SDS011;64295;44.772;39.872;2023-12-29T14:58:41;5.32;;;1.92;;
75682;SDS011;64295;44.772;39.872;2023-12-29T15:01:08;5.13;;;3.58;;
75682;SDS011;64295;44.772;39.872;2023-12-29T15:03:34;4.00;;;2.75;;
75682;SDS011;64295;44.772;39.872;2023-12-29T15:06:01;4.95;;;3.35;;
75682;SDS011;64295;44.772;39.872;2023-12-29T15:08:27;4.97;;;2.60;;
75682;SDS011;64295;44.772;39.872;2023-12-29T15:11:02;13.05;;;3.85;;
75682;SDS011;64295;44.772;39.872;2023-12-29T15:13:30;2.97;;;2.33;;
75682;SDS011;64295;44.772;39.872;2023-12-29T15:15:59;3.03;;;2.83;;
75682;SDS011;64295;44.772;39.872;2023-12-29T15:18:26;3.33;;;2.85;;
75682;SDS011;64295;44.772;39.872;2023-12-29T15:20:56;7.95;;;4.95;;
75682;SDS011;64295;44.772;39.872;2023-12-29T15:23:23;12.90;;;6.07;;